sensor_id;sensor_type;location;lat;lon;timestamp;temperature;humidity
23305;DHT22;11821;51.456;8.844;2023-04-26T12:02:50;11.30;99.90
23305;DHT22;11821;51.456;8.844;2023-04-26T12:10:19;14.50;92.60
23305;DHT22;11821;51.456;8.844;2023-04-26T12:15:17;14.80;92.60
23305;DHT22;11821;51.456;8.844;2023-04-26T12:25:29;15.30;92.50
23305;DHT22;11821;51.456;8.844;2023-04-26T12:27:55;15.00;93.10
23305;DHT22;11821;51.456;8.844;2023-04-26T12:30:22;14.90;92.00
23305;DHT22;11821;51.456;8.844;2023-04-26T12:33:01;14.60;93.20
23305;DHT22;11821;51.456;8.844;2023-04-26T12:35:27;14.70;92.90
23305;DHT22;11821;51.456;8.844;2023-04-26T12:37:53;14.70;92.80
23305;DHT22;11821;51.456;8.844;2023-04-26T12:40:22;14.60;92.80
23305;DHT22;11821;51.456;8.844;2023-04-26T12:42:49;14.40;93.50
23305;DHT22;11821;51.456;8.844;2023-04-26T12:52:40;14.60;94.00
23305;DHT22;11821;51.456;8.844;2023-04-26T12:55:09;14.70;93.80
23305;DHT22;11821;51.456;8.844;2023-04-26T13:00:05;14.60;93.50
23305;DHT22;11821;51.456;8.844;2023-04-26T13:07:31;14.50;92.40
23305;DHT22;11821;51.456;8.844;2023-04-26T13:09:58;14.30;95.60
23305;DHT22;11821;51.456;8.844;2023-04-26T13:12:24;14.30;96.30
23305;DHT22;11821;51.456;8.844;2023-04-26T13:14:51;14.20;96.90
23305;DHT22;11821;51.456;8.844;2023-04-26T13:17:17;14.30;96.50
23305;DHT22;11821;51.456;8.844;2023-04-26T13:19:43;14.10;96.00
23305;DHT22;11821;51.456;8.844;2023-04-26T13:22:10;14.30;95.80
23305;DHT22;11821;51.456;8.844;2023-04-26T13:24:36;14.20;96.00
23305;DHT22;11821;51.456;8.844;2023-04-26T13:27:03;14.10;96.80
23305;DHT22;11821;51.456;8.844;2023-04-26T13:29:29;13.80;96.10
23305;DHT22;11821;51.456;8.844;2023-04-26T13:31:58;13.70;96.90
23305;DHT22;11821;51.456;8.844;2023-04-26T13:34:25;14.00;96.80
23305;DHT22;11821;51.456;8.844;2023-04-26T13:36:52;13.60;94.50
23305;DHT22;11821;51.456;8.844;2023-04-26T13:39:19;13.70;95.40
23305;DHT22;11821;51.456;8.844;2023-04-26T13:41:45;13.80;94.70
23305;DHT22;11821;51.456;8.844;2023-04-26T13:44:11;13.80;95.60
23305;DHT22;11821;51.456;8.844;2023-04-26T13:46:39;13.80;96.00
23305;DHT22;11821;51.456;8.844;2023-04-26T13:49:05;14.00;97.20
23305;DHT22;11821;51.456;8.844;2023-04-26T13:51:32;14.00;95.50
23305;DHT22;11821;51.456;8.844;2023-04-26T13:53:59;14.20;95.00
23305;DHT22;11821;51.456;8.844;2023-04-26T13:56:25;14.40;94.80
23305;DHT22;11821;51.456;8.844;2023-04-26T13:58:55;14.40;93.80
23305;DHT22;11821;51.456;8.844;2023-04-26T14:01:22;14.20;93.30
23305;DHT22;11821;51.456;8.844;2023-04-26T14:03:48;13.80;94.10
23305;DHT22;11821;51.456;8.844;2023-04-26T14:08:41;14.00;95.40
23305;DHT22;11821;51.456;8.844;2023-04-26T14:11:07;14.30;94.90
23305;DHT22;11821;51.456;8.844;2023-04-26T14:16:00;14.50;95.60
23305;DHT22;11821;51.456;8.844;2023-04-26T14:18:26;13.40;92.60
23305;DHT22;11821;51.456;8.844;2023-04-26T14:20:53;12.80;93.10
23305;DHT22;11821;51.456;8.844;2023-04-26T14:23:19;13.00;96.80
23305;DHT22;11821;51.456;8.844;2023-04-26T14:25:49;13.40;95.10
23305;DHT22;11821;51.456;8.844;2023-04-26T14:28:16;13.60;95.40
23305;DHT22;11821;51.456;8.844;2023-04-26T14:30:42;13.80;95.30
23305;DHT22;11821;51.456;8.844;2023-04-26T14:33:08;13.80;94.70
23305;DHT22;11821;51.456;8.844;2023-04-26T14:35:35;14.00;96.70
23305;DHT22;11821;51.456;8.844;2023-04-26T14:38:01;14.10;95.70
23305;DHT22;11821;51.456;8.844;2023-04-26T14:40:28;14.20;94.30
23305;DHT22;11821;51.456;8.844;2023-04-26T14:42:55;14.00;93.50
23305;DHT22;11821;51.456;8.844;2023-04-26T14:45:21;14.00;92.50
23305;DHT22;11821;51.456;8.844;2023-04-26T14:47:48;13.70;93.00
23305;DHT22;11821;51.456;8.844;2023-04-26T14:50:14;14.00;93.70
23305;DHT22;11821;51.456;8.844;2023-04-26T14:52:41;13.70;93.50
23305;DHT22;11821;51.456;8.844;2023-04-26T14:55:07;13.50;95.00
23305;DHT22;11821;51.456;8.844;2023-04-26T14:57:33;13.50;94.00
23305;DHT22;11821;51.456;8.844;2023-04-26T15:00:00;13.60;95.80
23305;DHT22;11821;51.456;8.844;2023-04-26T15:02:32;13.70;95.30
23305;DHT22;11821;51.456;8.844;2023-04-26T15:04:59;13.80;94.20
23305;DHT22;11821;51.456;8.844;2023-04-26T15:07:29;13.90;94.10
23305;DHT22;11821;51.456;8.844;2023-04-26T15:09:55;13.90;95.70
23305;DHT22;11821;51.456;8.844;2023-04-26T15:12:22;14.00;95.70
23305;DHT22;11821;51.456;8.844;2023-04-26T15:14:48;14.20;93.30
23305;DHT22;11821;51.456;8.844;2023-04-26T15:17:14;14.10;92.60
23305;DHT22;11821;51.456;8.844;2023-04-26T15:19:40;14.10;94.90
23305;DHT22;11821;51.456;8.844;2023-04-26T15:22:07;13.90;92.30
23305;DHT22;11821;51.456;8.844;2023-04-26T15:24:36;14.20;93.20
23305;DHT22;11821;51.456;8.844;2023-04-26T15:29:33;13.90;93.50
23305;DHT22;11821;51.456;8.844;2023-04-26T15:32:00;14.30;93.20
23305;DHT22;11821;51.456;8.844;2023-04-26T15:34:27;14.50;94.00
23305;DHT22;11821;51.456;8.844;2023-04-26T15:36:59;14.40;92.90
23305;DHT22;11821;51.456;8.844;2023-04-26T15:41:52;14.50;95.60
23305;DHT22;11821;51.456;8.844;2023-04-26T15:44:18;14.50;93.90
23305;DHT22;11821;51.456;8.844;2023-04-26T15:46:44;13.80;92.30
23305;DHT22;11821;51.456;8.844;2023-04-26T15:49:11;13.80;93.90
23305;DHT22;11821;51.456;8.844;2023-04-26T15:51:37;14.00;94.80
23305;DHT22;11821;51.456;8.844;2023-04-26T15:54:03;14.20;93.40
23305;DHT22;11821;51.456;8.844;2023-04-26T15:56:30;14.30;94.20
23305;DHT22;11821;51.456;8.844;2023-04-26T15:58:56;13.90;92.10
23305;DHT22;11821;51.456;8.844;2023-04-26T16:01:22;13.60;92.50
23305;DHT22;11821;51.456;8.844;2023-04-26T16:03:49;13.60;95.10
23305;DHT22;11821;51.456;8.844;2023-04-26T16:06:15;13.80;94.70
23305;DHT22;11821;51.456;8.844;2023-04-26T16:08:41;13.90;94.30
23305;DHT22;11821;51.456;8.844;2023-04-26T16:11:08;14.00;94.00
23305;DHT22;11821;51.456;8.844;2023-04-26T16:13:34;13.90;93.20
23305;DHT22;11821;51.456;8.844;2023-04-26T16:16:04;13.90;94.10
23305;DHT22;11821;51.456;8.844;2023-04-26T16:18:31;13.80;94.30
23305;DHT22;11821;51.456;8.844;2023-04-26T16:25:58;13.80;92.80
23305;DHT22;11821;51.456;8.844;2023-04-26T16:28:24;13.30;95.10
23305;DHT22;11821;51.456;8.844;2023-04-26T16:30:50;13.50;93.80
23305;DHT22;11821;51.456;8.844;2023-04-26T16:33:17;13.50;93.60
23305;DHT22;11821;51.456;8.844;2023-04-26T16:35:43;13.60;95.00
23305;DHT22;11821;51.456;8.844;2023-04-26T16:38:09;13.40;94.30
23305;DHT22;11821;51.456;8.844;2023-04-26T16:40:36;13.40;94.20
23305;DHT22;11821;51.456;8.844;2023-04-26T16:43:02;13.60;93.60
23305;DHT22;11821;51.456;8.844;2023-04-26T16:45:31;13.70;95.40
23305;DHT22;11821;51.456;8.844;2023-04-26T16:47:57;13.30;95.20
23305;DHT22;11821;51.456;8.844;2023-04-26T16:50:24;12.80;95.40
23305;DHT22;11821;51.456;8.844;2023-04-26T16:52:50;13.00;95.40
23305;DHT22;11821;51.456;8.844;2023-04-26T16:55:17;12.70;95.60
23305;DHT22;11821;51.456;8.844;2023-04-26T16:57:43;12.70;94.90
23305;DHT22;11821;51.456;8.844;2023-04-26T17:00:10;12.50;95.30
23305;DHT22;11821;51.456;8.844;2023-04-26T17:02:37;12.80;95.40
23305;DHT22;11821;51.456;8.844;2023-04-26T17:05:05;12.80;97.20
23305;DHT22;11821;51.456;8.844;2023-04-26T17:07:31;12.50;96.60
23305;DHT22;11821;51.456;8.844;2023-04-26T17:09:58;12.50;96.50
23305;DHT22;11821;51.456;8.844;2023-04-26T17:12:24;12.50;97.00
23305;DHT22;11821;51.456;8.844;2023-04-26T17:14:51;12.50;97.80
23305;DHT22;11821;51.456;8.844;2023-04-26T17:17:17;12.70;97.30
23305;DHT22;11821;51.456;8.844;2023-04-26T17:19:43;12.90;98.00
23305;DHT22;11821;51.456;8.844;2023-04-26T17:22:09;12.90;96.00
23305;DHT22;11821;51.456;8.844;2023-04-26T17:24:36;12.80;97.60
23305;DHT22;11821;51.456;8.844;2023-04-26T17:27:04;12.50;97.30
23305;DHT22;11821;51.456;8.844;2023-04-26T17:29:30;12.50;96.20
23305;DHT22;11821;51.456;8.844;2023-04-26T17:31:56;12.40;98.20
23305;DHT22;11821;51.456;8.844;2023-04-26T17:34:22;12.30;97.10
23305;DHT22;11821;51.456;8.844;2023-04-26T17:36:49;12.30;97.20
23305;DHT22;11821;51.456;8.844;2023-04-26T17:39:16;12.40;97.70
23305;DHT22;11821;51.456;8.844;2023-04-26T17:41:43;12.30;97.10
23305;DHT22;11821;51.456;8.844;2023-04-26T17:44:09;12.40;97.90
23305;DHT22;11821;51.456;8.844;2023-04-26T17:46:35;12.20;96.50
23305;DHT22;11821;51.456;8.844;2023-04-26T17:49:02;12.10;96.80
23305;DHT22;11821;51.456;8.844;2023-04-26T17:51:28;11.80;98.60
23305;DHT22;11821;51.456;8.844;2023-04-26T17:53:55;11.80;97.40
23305;DHT22;11821;51.456;8.844;2023-04-26T17:56:21;11.70;97.10
23305;DHT22;11821;51.456;8.844;2023-04-26T17:58:48;11.70;97.00
23305;DHT22;11821;51.456;8.844;2023-04-26T18:01:14;11.70;98.20
23305;DHT22;11821;51.456;8.844;2023-04-26T18:03:40;11.70;97.90
23305;DHT22;11821;51.456;8.844;2023-04-26T18:06:07;11.80;98.80
23305;DHT22;11821;51.456;8.844;2023-04-26T18:08:33;11.80;98.00
23305;DHT22;11821;51.456;8.844;2023-04-26T18:10:59;11.90;98.00
23305;DHT22;11821;51.456;8.844;2023-04-26T18:13:26;11.70;97.70
23305;DHT22;11821;51.456;8.844;2023-04-26T18:18:24;11.70;99.90
23305;DHT22;11821;51.456;8.844;2023-04-26T18:20:52;11.80;98.60
